sensor_id;sensor_type;location;lat;lon;timestamp;temperature;humidity
2723;DHT22;1369;53.216;10.396;2023-06-05T00:01:11;13.00;99.90
2723;DHT22;1369;53.216;10.396;2023-06-05T00:03:37;12.90;99.90
2723;DHT22;1369;53.216;10.396;2023-06-05T00:06:05;12.90;99.90
2723;DHT22;1369;53.216;10.396;2023-06-05T00:08:31;12.80;99.90
2723;DHT22;1369;53.216;10.396;2023-06-05T00:10:57;12.80;99.90
2723;DHT22;1369;53.216;10.396;2023-06-05T00:13:22;12.70;99.90
2723;DHT22;1369;53.216;10.396;2023-06-05T00:15:48;12.60;99.90
2723;DHT22;1369;53.216;10.396;2023-06-05T00:18:14;12.70;99.90
2723;DHT22;1369;53.216;10.396;2023-06-05T00:20:39;12.60;99.90
2723;DHT22;1369;53.216;10.396;2023-06-05T00:23:05;12.60;99.90
2723;DHT22;1369;53.216;10.396;2023-06-05T00:25:31;12.50;99.90
2723;DHT22;1369;53.216;10.396;2023-06-05T00:27:56;12.50;99.90
2723;DHT22;1369;53.216;10.396;2023-06-05T00:30:22;12.50;99.90
2723;DHT22;1369;53.216;10.396;2023-06-05T00:32:47;12.50;99.90
2723;DHT22;1369;53.216;10.396;2023-06-05T00:35:13;12.40;99.90
2723;DHT22;1369;53.216;10.396;2023-06-05T00:37:39;12.30;99.90
2723;DHT22;1369;53.216;10.396;2023-06-05T00:40:05;12.30;99.90
2723;DHT22;1369;53.216;10.396;2023-06-05T00:42:31;12.20;99.90
2723;DHT22;1369;53.216;10.396;2023-06-05T00:44:57;12.10;99.90
2723;DHT22;1369;53.216;10.396;2023-06-05T00:47:22;12.10;99.90
2723;DHT22;1369;53.216;10.396;2023-06-05T00:49:50;12.20;99.90
2723;DHT22;1369;53.216;10.396;2023-06-05T00:52:16;12.10;99.90
2723;DHT22;1369;53.216;10.396;2023-06-05T00:54:42;12.10;99.90
2723;DHT22;1369;53.216;10.396;2023-06-05T00:57:08;12.00;99.90
2723;DHT22;1369;53.216;10.396;2023-06-05T00:59:34;12.00;99.90
2723;DHT22;1369;53.216;10.396;2023-06-05T01:02:01;12.00;99.90
2723;DHT22;1369;53.216;10.396;2023-06-05T01:04:28;12.00;99.90
2723;DHT22;1369;53.216;10.396;2023-06-05T01:06:54;11.90;99.90
2723;DHT22;1369;53.216;10.396;2023-06-05T01:09:23;11.80;99.90
2723;DHT22;1369;53.216;10.396;2023-06-05T01:11:58;11.80;99.90
2723;DHT22;1369;53.216;10.396;2023-06-05T01:14:29;11.80;99.90
2723;DHT22;1369;53.216;10.396;2023-06-05T01:16:57;11.80;99.90
2723;DHT22;1369;53.216;10.396;2023-06-05T01:19:26;11.70;99.90
2723;DHT22;1369;53.216;10.396;2023-06-05T01:21:54;11.70;99.90
2723;DHT22;1369;53.216;10.396;2023-06-05T01:24:21;11.70;99.90
2723;DHT22;1369;53.216;10.396;2023-06-05T01:32:32;11.60;99.90
2723;DHT22;1369;53.216;10.396;2023-06-05T01:35:06;11.60;99.90
2723;DHT22;1369;53.216;10.396;2023-06-05T01:37:33;11.60;99.90
2723;DHT22;1369;53.216;10.396;2023-06-05T01:40:03;11.50;99.90
2723;DHT22;1369;53.216;10.396;2023-06-05T01:42:31;11.60;99.90
2723;DHT22;1369;53.216;10.396;2023-06-05T01:44:57;11.50;99.90
2723;DHT22;1369;53.216;10.396;2023-06-05T01:47:24;11.40;99.90
2723;DHT22;1369;53.216;10.396;2023-06-05T01:49:49;11.40;99.90
2723;DHT22;1369;53.216;10.396;2023-06-05T01:52:15;11.40;99.90
2723;DHT22;1369;53.216;10.396;2023-06-05T01:54:40;11.40;99.90
2723;DHT22;1369;53.216;10.396;2023-06-05T01:57:07;11.30;99.90
2723;DHT22;1369;53.216;10.396;2023-06-05T01:59:34;11.30;99.90
2723;DHT22;1369;53.216;10.396;2023-06-05T02:02:00;11.20;99.90
2723;DHT22;1369;53.216;10.396;2023-06-05T02:04:26;11.20;99.90
2723;DHT22;1369;53.216;10.396;2023-06-05T02:06:53;11.20;99.90
2723;DHT22;1369;53.216;10.396;2023-06-05T02:09:18;11.10;99.90
2723;DHT22;1369;53.216;10.396;2023-06-05T02:11:45;11.00;99.90
2723;DHT22;1369;53.216;10.396;2023-06-05T02:14:13;11.00;99.90
2723;DHT22;1369;53.216;10.396;2023-06-05T02:16:41;10.90;99.90
2723;DHT22;1369;53.216;10.396;2023-06-05T02:19:07;10.90;99.90
2723;DHT22;1369;53.216;10.396;2023-06-05T02:21:33;11.00;99.90
2723;DHT22;1369;53.216;10.396;2023-06-05T02:23:59;11.00;99.90
2723;DHT22;1369;53.216;10.396;2023-06-05T02:26:25;11.00;99.90
2723;DHT22;1369;53.216;10.396;2023-06-05T02:28:51;10.90;99.90
2723;DHT22;1369;53.216;10.396;2023-06-05T02:31:22;10.90;99.90
2723;DHT22;1369;53.216;10.396;2023-06-05T02:33:51;10.80;99.90
2723;DHT22;1369;53.216;10.396;2023-06-05T02:36:17;10.70;99.90
2723;DHT22;1369;53.216;10.396;2023-06-05T02:38:43;10.70;99.90
2723;DHT22;1369;53.216;10.396;2023-06-05T02:41:08;10.70;99.90
2723;DHT22;1369;53.216;10.396;2023-06-05T02:43:34;10.70;99.90
2723;DHT22;1369;53.216;10.396;2023-06-05T02:46:00;10.60;99.90
2723;DHT22;1369;53.216;10.396;2023-06-05T02:48:25;10.60;99.90
2723;DHT22;1369;53.216;10.396;2023-06-05T02:50:51;10.50;99.90
2723;DHT22;1369;53.216;10.396;2023-06-05T02:53:16;10.50;99.90
2723;DHT22;1369;53.216;10.396;2023-06-05T02:55:42;10.50;99.90
2723;DHT22;1369;53.216;10.396;2023-06-05T02:58:08;10.50;99.90
2723;DHT22;1369;53.216;10.396;2023-06-05T03:00:34;10.50;99.90
2723;DHT22;1369;53.216;10.396;2023-06-05T03:02:59;10.50;99.90
2723;DHT22;1369;53.216;10.396;2023-06-05T03:05:26;10.40;99.90
2723;DHT22;1369;53.216;10.396;2023-06-05T03:07:53;10.40;99.90
2723;DHT22;1369;53.216;10.396;2023-06-05T03:10:22;10.40;99.90
2723;DHT22;1369;53.216;10.396;2023-06-05T03:12:47;10.40;99.90
2723;DHT22;1369;53.216;10.396;2023-06-05T03:15:13;10.40;99.90
2723;DHT22;1369;53.216;10.396;2023-06-05T03:17:40;10.40;99.90
2723;DHT22;1369;53.216;10.396;2023-06-05T03:20:07;10.40;99.90
2723;DHT22;1369;53.216;10.396;2023-06-05T03:22:34;10.40;99.90
2723;DHT22;1369;53.216;10.396;2023-06-05T03:25:00;10.40;99.90
2723;DHT22;1369;53.216;10.396;2023-06-05T03:27:26;10.40;99.90
2723;DHT22;1369;53.216;10.396;2023-06-05T03:29:51;10.40;99.90
2723;DHT22;1369;53.216;10.396;2023-06-05T03:32:17;10.40;99.90
2723;DHT22;1369;53.216;10.396;2023-06-05T03:34:42;10.50;99.90
2723;DHT22;1369;53.216;10.396;2023-06-05T03:37:08;10.50;99.90
2723;DHT22;1369;53.216;10.396;2023-06-05T03:39:34;10.40;99.90
2723;DHT22;1369;53.216;10.396;2023-06-05T03:41:59;10.40;99.90
2723;DHT22;1369;53.216;10.396;2023-06-05T03:44:26;10.40;99.90
2723;DHT22;1369;53.216;10.396;2023-06-05T03:46:51;10.40;99.90
2723;DHT22;1369;53.216;10.396;2023-06-05T03:49:17;10.40;99.90
2723;DHT22;1369;53.216;10.396;2023-06-05T03:51:43;10.40;99.90
2723;DHT22;1369;53.216;10.396;2023-06-05T03:54:10;10.50;99.90
2723;DHT22;1369;53.216;10.396;2023-06-05T03:56:35;10.50;99.90
2723;DHT22;1369;53.216;10.396;2023-06-05T03:59:04;10.60;99.90
2723;DHT22;1369;53.216;10.396;2023-06-05T04:01:43;10.70;99.90
2723;DHT22;1369;53.216;10.396;2023-06-05T04:04:09;10.70;99.90
2723;DHT22;1369;53.216;10.396;2023-06-05T04:06:35;10.70;99.90
2723;DHT22;1369;53.216;10.396;2023-06-05T04:09:02;10.80;99.90
2723;DHT22;1369;53.216;10.396;2023-06-05T04:11:34;10.70;99.90
2723;DHT22;1369;53.216;10.396;2023-06-05T04:14:00;10.80;99.90
2723;DHT22;1369;53.216;10.396;2023-06-05T04:16:25;10.90;99.90
2723;DHT22;1369;53.216;10.396;2023-06-05T04:18:50;10.90;99.90
2723;DHT22;1369;53.216;10.396;2023-06-05T04:21:16;10.90;99.90
2723;DHT22;1369;53.216;10.396;2023-06-05T04:23:41;10.90;99.90
2723;DHT22;1369;53.216;10.396;2023-06-05T04:26:07;11.00;99.90
2723;DHT22;1369;53.216;10.396;2023-06-05T04:28:32;11.00;99.90
2723;DHT22;1369;53.216;10.396;2023-06-05T04:30:59;11.00;99.90
2723;DHT22;1369;53.216;10.396;2023-06-05T04:33:25;11.10;99.90
2723;DHT22;1369;53.216;10.396;2023-06-05T04:35:50;11.20;99.90
2723;DHT22;1369;53.216;10.396;2023-06-05T04:38:16;11.20;99.90
2723;DHT22;1369;53.216;10.396;2023-06-05T04:40:49;11.30;99.90
2723;DHT22;1369;53.216;10.396;2023-06-05T04:43:15;11.30;99.90
2723;DHT22;1369;53.216;10.396;2023-06-05T04:45:41;11.40;99.90
2723;DHT22;1369;53.216;10.396;2023-06-05T04:48:08;11.50;99.90
2723;DHT22;1369;53.216;10.396;2023-06-05T04:50:33;11.60;99.90
2723;DHT22;1369;53.216;10.396;2023-06-05T04:53:01;11.60;99.90
2723;DHT22;1369;53.216;10.396;2023-06-05T04:55:26;11.70;99.90
2723;DHT22;1369;53.216;10.396;2023-06-05T04:57:52;11.80;99.90
2723;DHT22;1369;53.216;10.396;2023-06-05T05:00:18;11.90;99.90
2723;DHT22;1369;53.216;10.396;2023-06-05T05:02:44;11.90;99.90
2723;DHT22;1369;53.216;10.396;2023-06-05T05:05:10;12.10;99.90
2723;DHT22;1369;53.216;10.396;2023-06-05T05:07:41;12.10;99.90
2723;DHT22;1369;53.216;10.396;2023-06-05T05:10:08;12.10;99.90
2723;DHT22;1369;53.216;10.396;2023-06-05T05:12:34;12.10;99.90
2723;DHT22;1369;53.216;10.396;2023-06-05T05:14:59;12.20;99.90
2723;DHT22;1369;53.216;10.396;2023-06-05T05:17:25;12.30;99.90
2723;DHT22;1369;53.216;10.396;2023-06-05T05:19:51;12.40;99.90
2723;DHT22;1369;53.216;10.396;2023-06-05T05:22:16;12.50;99.90
2723;DHT22;1369;53.216;10.396;2023-06-05T05:24:42;12.50;99.90
2723;DHT22;1369;53.216;10.396;2023-06-05T05:27:08;12.70;99.90
2723;DHT22;1369;53.216;10.396;2023-06-05T05:29:33;12.80;99.90
2723;DHT22;1369;53.216;10.396;2023-06-05T05:31:59;12.90;99.90
2723;DHT22;1369;53.216;10.396;2023-06-05T05:34:24;13.00;99.90
2723;DHT22;1369;53.216;10.396;2023-06-05T05:36:50;13.10;99.90
2723;DHT22;1369;53.216;10.396;2023-06-05T05:39:16;13.10;99.90
2723;DHT22;1369;53.216;10.396;2023-06-05T05:41:42;13.30;99.90
2723;DHT22;1369;53.216;10.396;2023-06-05T05:44:08;13.40;99.90
2723;DHT22;1369;53.216;10.396;2023-06-05T05:46:33;13.50;99.90
2723;DHT22;1369;53.216;10.396;2023-06-05T05:48:59;13.60;99.90
2723;DHT22;1369;53.216;10.396;2023-06-05T05:51:24;13.70;99.90
2723;DHT22;1369;53.216;10.396;2023-06-05T05:53:50;13.70;99.90
2723;DHT22;1369;53.216;10.396;2023-06-05T05:56:16;13.80;99.90
2723;DHT22;1369;53.216;10.396;2023-06-05T05:58:41;13.90;99.90
2723;DHT22;1369;53.216;10.396;2023-06-05T06:01:08;14.10;99.90
2723;DHT22;1369;53.216;10.396;2023-06-05T06:03:34;14.20;99.90
2723;DHT22;1369;53.216;10.396;2023-06-05T06:06:03;14.30;99.90
2723;DHT22;1369;53.216;10.396;2023-06-05T06:08:29;14.40;99.90
2723;DHT22;1369;53.216;10.396;2023-06-05T06:10:55;14.40;99.90
2723;DHT22;1369;53.216;10.396;2023-06-05T06:13:21;14.50;99.90
2723;DHT22;1369;53.216;10.396;2023-06-05T06:15:46;14.60;99.90
2723;DHT22;1369;53.216;10.396;2023-06-05T06:18:12;14.70;99.90
2723;DHT22;1369;53.216;10.396;2023-06-05T06:20:37;14.80;99.90
2723;DHT22;1369;53.216;10.396;2023-06-05T06:23:03;15.00;99.90
2723;DHT22;1369;53.216;10.396;2023-06-05T06:25:29;15.00;99.90
2723;DHT22;1369;53.216;10.396;2023-06-05T06:27:57;15.10;99.90
2723;DHT22;1369;53.216;10.396;2023-06-05T06:30:22;15.20;99.90
2723;DHT22;1369;53.216;10.396;2023-06-05T06:32:48;15.30;99.90
2723;DHT22;1369;53.216;10.396;2023-06-05T06:35:13;15.20;99.90
2723;DHT22;1369;53.216;10.396;2023-06-05T06:37:42;15.20;99.90
2723;DHT22;1369;53.216;10.396;2023-06-05T06:40:08;15.40;99.90
2723;DHT22;1369;53.216;10.396;2023-06-05T06:42:34;15.40;99.90
2723;DHT22;1369;53.216;10.396;2023-06-05T06:45:00;15.60;99.90
2723;DHT22;1369;53.216;10.396;2023-06-05T06:47:25;15.70;99.90
2723;DHT22;1369;53.216;10.396;2023-06-05T06:49:51;15.70;99.90
2723;DHT22;1369;53.216;10.396;2023-06-05T06:52:17;15.80;99.90
2723;DHT22;1369;53.216;10.396;2023-06-05T06:54:45;15.90;99.90
2723;DHT22;1369;53.216;10.396;2023-06-05T06:57:11;16.00;99.90
2723;DHT22;1369;53.216;10.396;2023-06-05T06:59:37;16.00;99.90
2723;DHT22;1369;53.216;10.396;2023-06-05T07:02:16;16.10;99.90
2723;DHT22;1369;53.216;10.396;2023-06-05T07:04:43;16.30;99.90
2723;DHT22;1369;53.216;10.396;2023-06-05T07:07:16;17.30;99.90
2723;DHT22;1369;53.216;10.396;2023-06-05T07:09:44;18.10;99.90
2723;DHT22;1369;53.216;10.396;2023-06-05T07:12:11;19.70;99.90
2723;DHT22;1369;53.216;10.396;2023-06-05T07:14:37;21.80;99.90
2723;DHT22;1369;53.216;10.396;2023-06-05T07:17:03;24.10;99.90
2723;DHT22;1369;53.216;10.396;2023-06-05T07:19:33;26.30;99.90
2723;DHT22;1369;53.216;10.396;2023-06-05T07:22:00;27.80;99.90
2723;DHT22;1369;53.216;10.396;2023-06-05T07:24:28;28.80;99.90
2723;DHT22;1369;53.216;10.396;2023-06-05T07:26:56;30.10;99.90
2723;DHT22;1369;53.216;10.396;2023-06-05T07:29:22;30.50;97.60
2723;DHT22;1369;53.216;10.396;2023-06-05T07:31:53;30.40;96.90
2723;DHT22;1369;53.216;10.396;2023-06-05T07:34:20;30.90;92.60
2723;DHT22;1369;53.216;10.396;2023-06-05T07:36:47;31.50;93.70
2723;DHT22;1369;53.216;10.396;2023-06-05T07:39:14;31.80;90.80
2723;DHT22;1369;53.216;10.396;2023-06-05T07:41:40;32.10;91.50
2723;DHT22;1369;53.216;10.396;2023-06-05T07:44:10;32.70;89.40
2723;DHT22;1369;53.216;10.396;2023-06-05T07:46:36;32.40;87.80
2723;DHT22;1369;53.216;10.396;2023-06-05T07:49:01;32.70;84.30
2723;DHT22;1369;53.216;10.396;2023-06-05T07:51:27;31.50;77.30
2723;DHT22;1369;53.216;10.396;2023-06-05T07:53:52;31.70;83.60
2723;DHT22;1369;53.216;10.396;2023-06-05T07:56:18;32.40;82.80
2723;DHT22;1369;53.216;10.396;2023-06-05T07:58:43;32.90;77.60
2723;DHT22;1369;53.216;10.396;2023-06-05T08:01:10;33.40;79.50
2723;DHT22;1369;53.216;10.396;2023-06-05T08:03:37;33.90;75.00
2723;DHT22;1369;53.216;10.396;2023-06-05T08:06:03;33.60;75.20
2723;DHT22;1369;53.216;10.396;2023-06-05T08:08:28;34.10;75.40
2723;DHT22;1369;53.216;10.396;2023-06-05T08:10:55;33.20;69.00
2723;DHT22;1369;53.216;10.396;2023-06-05T08:13:21;33.10;71.10
2723;DHT22;1369;53.216;10.396;2023-06-05T08:15:46;33.10;71.20
2723;DHT22;1369;53.216;10.396;2023-06-05T08:18:12;33.40;71.30
2723;DHT22;1369;53.216;10.396;2023-06-05T08:20:37;33.40;71.60
2723;DHT22;1369;53.216;10.396;2023-06-05T08:23:03;33.90;72.10
2723;DHT22;1369;53.216;10.396;2023-06-05T08:25:30;33.50;71.00
2723;DHT22;1369;53.216;10.396;2023-06-05T08:27:56;33.30;72.10
2723;DHT22;1369;53.216;10.396;2023-06-05T08:30:21;32.20;64.30
2723;DHT22;1369;53.216;10.396;2023-06-05T08:32:47;30.80;68.50
2723;DHT22;1369;53.216;10.396;2023-06-05T08:35:12;31.70;74.60
2723;DHT22;1369;53.216;10.396;2023-06-05T08:37:39;32.20;71.20
2723;DHT22;1369;53.216;10.396;2023-06-05T08:40:05;31.40;70.60
2723;DHT22;1369;53.216;10.396;2023-06-05T08:42:37;32.00;71.90
2723;DHT22;1369;53.216;10.396;2023-06-05T08:45:07;32.20;73.40
2723;DHT22;1369;53.216;10.396;2023-06-05T08:47:35;32.30;71.60
2723;DHT22;1369;53.216;10.396;2023-06-05T08:50:03;31.60;66.90
2723;DHT22;1369;53.216;10.396;2023-06-05T08:52:33;30.60;70.00
2723;DHT22;1369;53.216;10.396;2023-06-05T08:55:01;30.40;73.20
2723;DHT22;1369;53.216;10.396;2023-06-05T08:57:28;30.70;70.60
2723;DHT22;1369;53.216;10.396;2023-06-05T08:59:54;30.50;71.80
2723;DHT22;1369;53.216;10.396;2023-06-05T09:02:19;30.50;69.80
2723;DHT22;1369;53.216;10.396;2023-06-05T09:04:45;30.20;73.20
2723;DHT22;1369;53.216;10.396;2023-06-05T09:07:11;30.30;73.60
2723;DHT22;1369;53.216;10.396;2023-06-05T09:09:37;29.80;68.80
2723;DHT22;1369;53.216;10.396;2023-06-05T09:12:06;29.60;75.10
2723;DHT22;1369;53.216;10.396;2023-06-05T09:14:32;29.60;74.90
2723;DHT22;1369;53.216;10.396;2023-06-05T09:16:59;29.60;75.00
2723;DHT22;1369;53.216;10.396;2023-06-05T09:19:25;29.60;76.90
2723;DHT22;1369;53.216;10.396;2023-06-05T09:22:00;29.20;71.50
2723;DHT22;1369;53.216;10.396;2023-06-05T09:24:25;28.60;73.30
2723;DHT22;1369;53.216;10.396;2023-06-05T09:27:05;28.30;72.70
2723;DHT22;1369;53.216;10.396;2023-06-05T09:29:39;28.10;76.40
2723;DHT22;1369;53.216;10.396;2023-06-05T09:32:07;27.90;71.60
2723;DHT22;1369;53.216;10.396;2023-06-05T09:34:37;27.40;74.60
2723;DHT22;1369;53.216;10.396;2023-06-05T09:37:05;27.10;73.50
2723;DHT22;1369;53.216;10.396;2023-06-05T09:39:35;26.90;76.50
2723;DHT22;1369;53.216;10.396;2023-06-05T09:42:01;27.20;79.30
2723;DHT22;1369;53.216;10.396;2023-06-05T09:44:28;27.30;77.70
2723;DHT22;1369;53.216;10.396;2023-06-05T09:51:52;27.60;78.20
2723;DHT22;1369;53.216;10.396;2023-06-05T09:54:20;27.40;73.00
2723;DHT22;1369;53.216;10.396;2023-06-05T09:56:49;26.90;72.40
2723;DHT22;1369;53.216;10.396;2023-06-05T09:59:20;26.60;72.90
2723;DHT22;1369;53.216;10.396;2023-06-05T10:01:51;26.50;74.40
2723;DHT22;1369;53.216;10.396;2023-06-05T10:04:23;26.70;77.00
2723;DHT22;1369;53.216;10.396;2023-06-05T10:06:51;26.40;70.70
2723;DHT22;1369;53.216;10.396;2023-06-05T10:09:18;26.40;73.60
2723;DHT22;1369;53.216;10.396;2023-06-05T10:11:48;26.20;69.00
2723;DHT22;1369;53.216;10.396;2023-06-05T10:14:16;25.60;71.80
2723;DHT22;1369;53.216;10.396;2023-06-05T10:16:43;25.60;73.20
2723;DHT22;1369;53.216;10.396;2023-06-05T10:19:11;25.70;70.70
2723;DHT22;1369;53.216;10.396;2023-06-05T10:21:37;25.80;73.10
2723;DHT22;1369;53.216;10.396;2023-06-05T10:24:15;25.90;71.50
2723;DHT22;1369;53.216;10.396;2023-06-05T10:27:04;26.20;72.90
2723;DHT22;1369;53.216;10.396;2023-06-05T10:40:19;26.90;71.20
2723;DHT22;1369;53.216;10.396;2023-06-05T10:42:46;26.60;73.40
2723;DHT22;1369;53.216;10.396;2023-06-05T10:45:12;26.80;72.80
2723;DHT22;1369;53.216;10.396;2023-06-05T10:52:50;27.40;69.90
2723;DHT22;1369;53.216;10.396;2023-06-05T10:55:16;27.30;65.10
2723;DHT22;1369;53.216;10.396;2023-06-05T11:00:37;27.20;68.70
2723;DHT22;1369;53.216;10.396;2023-06-05T11:03:05;26.90;70.10
2723;DHT22;1369;53.216;10.396;2023-06-05T11:05:32;27.20;71.60
2723;DHT22;1369;53.216;10.396;2023-06-05T11:08:13;27.30;70.30
2723;DHT22;1369;53.216;10.396;2023-06-05T11:11:05;27.10;67.20
2723;DHT22;1369;53.216;10.396;2023-06-05T11:13:53;27.20;69.30
2723;DHT22;1369;53.216;10.396;2023-06-05T11:16:31;27.50;71.50
2723;DHT22;1369;53.216;10.396;2023-06-05T11:22:07;27.50;65.20
2723;DHT22;1369;53.216;10.396;2023-06-05T11:24:34;27.10;64.50
2723;DHT22;1369;53.216;10.396;2023-06-05T11:27:01;27.10;65.90
2723;DHT22;1369;53.216;10.396;2023-06-05T11:29:29;27.00;62.00
2723;DHT22;1369;53.216;10.396;2023-06-05T11:31:56;27.00;66.00
2723;DHT22;1369;53.216;10.396;2023-06-05T11:34:22;27.10;67.60
2723;DHT22;1369;53.216;10.396;2023-06-05T11:36:48;27.20;63.90
2723;DHT22;1369;53.216;10.396;2023-06-05T11:39:16;27.20;66.80
2723;DHT22;1369;53.216;10.396;2023-06-05T11:41:46;26.90;62.10
2723;DHT22;1369;53.216;10.396;2023-06-05T11:44:14;26.80;63.30
2723;DHT22;1369;53.216;10.396;2023-06-05T11:46:42;26.80;65.00
2723;DHT22;1369;53.216;10.396;2023-06-05T11:49:23;27.00;65.70
2723;DHT22;1369;53.216;10.396;2023-06-05T11:51:50;27.00;63.50
2723;DHT22;1369;53.216;10.396;2023-06-05T11:54:27;27.00;66.30
2723;DHT22;1369;53.216;10.396;2023-06-05T11:56:59;27.00;66.10
2723;DHT22;1369;53.216;10.396;2023-06-05T11:59:27;27.30;66.00
2723;DHT22;1369;53.216;10.396;2023-06-05T12:01:54;27.40;69.00
2723;DHT22;1369;53.216;10.396;2023-06-05T12:04:20;27.60;70.00
2723;DHT22;1369;53.216;10.396;2023-06-05T12:06:47;27.80;68.20
2723;DHT22;1369;53.216;10.396;2023-06-05T12:09:14;28.00;68.70
2723;DHT22;1369;53.216;10.396;2023-06-05T12:11:43;28.10;69.60
2723;DHT22;1369;53.216;10.396;2023-06-05T12:14:11;28.20;67.40
2723;DHT22;1369;53.216;10.396;2023-06-05T12:16:39;28.20;62.50
2723;DHT22;1369;53.216;10.396;2023-06-05T12:19:12;28.00;63.60
2723;DHT22;1369;53.216;10.396;2023-06-05T12:21:38;27.80;66.70
2723;DHT22;1369;53.216;10.396;2023-06-05T12:24:05;27.60;62.60
2723;DHT22;1369;53.216;10.396;2023-06-05T12:29:19;27.10;63.90
2723;DHT22;1369;53.216;10.396;2023-06-05T12:31:50;26.80;64.30
2723;DHT22;1369;53.216;10.396;2023-06-05T12:34:17;26.90;64.90
2723;DHT22;1369;53.216;10.396;2023-06-05T12:36:44;27.00;62.10
2723;DHT22;1369;53.216;10.396;2023-06-05T12:39:11;27.10;64.00
2723;DHT22;1369;53.216;10.396;2023-06-05T12:41:39;27.10;67.20
2723;DHT22;1369;53.216;10.396;2023-06-05T12:44:06;27.40;68.90
2723;DHT22;1369;53.216;10.396;2023-06-05T12:46:34;27.80;68.20
2723;DHT22;1369;53.216;10.396;2023-06-05T12:49:02;28.10;68.20
2723;DHT22;1369;53.216;10.396;2023-06-05T12:51:31;28.30;66.80
2723;DHT22;1369;53.216;10.396;2023-06-05T12:53:58;28.50;66.40
2723;DHT22;1369;53.216;10.396;2023-06-05T12:56:24;28.70;65.00
2723;DHT22;1369;53.216;10.396;2023-06-05T12:58:57;28.90;62.50
2723;DHT22;1369;53.216;10.396;2023-06-05T13:01:24;29.00;64.90
2723;DHT22;1369;53.216;10.396;2023-06-05T13:03:51;29.10;66.20
2723;DHT22;1369;53.216;10.396;2023-06-05T13:06:18;29.20;67.50
2723;DHT22;1369;53.216;10.396;2023-06-05T13:08:45;29.30;65.80
2723;DHT22;1369;53.216;10.396;2023-06-05T13:11:13;29.40;67.00
2723;DHT22;1369;53.216;10.396;2023-06-05T13:13:39;29.20;61.60
2723;DHT22;1369;53.216;10.396;2023-06-05T13:16:06;29.00;63.80
2723;DHT22;1369;53.216;10.396;2023-06-05T13:18:34;28.70;61.40
2723;DHT22;1369;53.216;10.396;2023-06-05T13:21:04;28.10;59.60
2723;DHT22;1369;53.216;10.396;2023-06-05T13:23:31;28.00;66.50
2723;DHT22;1369;53.216;10.396;2023-06-05T13:25:59;27.80;65.50
2723;DHT22;1369;53.216;10.396;2023-06-05T13:28:25;27.50;65.40
2723;DHT22;1369;53.216;10.396;2023-06-05T13:30:51;27.10;65.20
2723;DHT22;1369;53.216;10.396;2023-06-05T13:33:19;26.80;65.70
2723;DHT22;1369;53.216;10.396;2023-06-05T13:35:45;26.50;64.20
2723;DHT22;1369;53.216;10.396;2023-06-05T13:38:12;26.00;65.00
2723;DHT22;1369;53.216;10.396;2023-06-05T13:40:38;25.70;64.90
2723;DHT22;1369;53.216;10.396;2023-06-05T13:43:04;25.70;67.60
2723;DHT22;1369;53.216;10.396;2023-06-05T13:45:31;25.90;69.80
2723;DHT22;1369;53.216;10.396;2023-06-05T13:47:57;26.00;69.30
2723;DHT22;1369;53.216;10.396;2023-06-05T13:50:24;26.10;64.30
2723;DHT22;1369;53.216;10.396;2023-06-05T13:52:51;26.30;68.50
2723;DHT22;1369;53.216;10.396;2023-06-05T13:55:18;26.60;70.10
2723;DHT22;1369;53.216;10.396;2023-06-05T13:57:44;26.90;68.70
2723;DHT22;1369;53.216;10.396;2023-06-05T14:00:10;27.20;70.50
2723;DHT22;1369;53.216;10.396;2023-06-05T14:02:38;27.40;68.70
2723;DHT22;1369;53.216;10.396;2023-06-05T14:05:05;27.60;67.20
2723;DHT22;1369;53.216;10.396;2023-06-05T14:07:34;27.80;68.20
2723;DHT22;1369;53.216;10.396;2023-06-05T14:10:00;27.90;66.10
2723;DHT22;1369;53.216;10.396;2023-06-05T14:12:26;28.00;68.50
2723;DHT22;1369;53.216;10.396;2023-06-05T14:14:52;28.00;67.90
2723;DHT22;1369;53.216;10.396;2023-06-05T14:17:18;27.90;64.70
2723;DHT22;1369;53.216;10.396;2023-06-05T14:19:44;27.70;62.80
2723;DHT22;1369;53.216;10.396;2023-06-05T14:22:11;27.40;63.40
2723;DHT22;1369;53.216;10.396;2023-06-05T14:24:37;27.50;67.10
2723;DHT22;1369;53.216;10.396;2023-06-05T14:27:03;27.50;63.90
2723;DHT22;1369;53.216;10.396;2023-06-05T14:29:30;27.40;65.20
2723;DHT22;1369;53.216;10.396;2023-06-05T14:31:56;27.60;66.20
2723;DHT22;1369;53.216;10.396;2023-06-05T14:34:22;27.20;63.40
2723;DHT22;1369;53.216;10.396;2023-06-05T14:36:48;27.10;62.50
2723;DHT22;1369;53.216;10.396;2023-06-05T14:39:18;27.20;64.90
2723;DHT22;1369;53.216;10.396;2023-06-05T14:41:46;26.80;60.20
2723;DHT22;1369;53.216;10.396;2023-06-05T14:44:13;26.90;63.80
2723;DHT22;1369;53.216;10.396;2023-06-05T14:46:39;26.80;62.80
2723;DHT22;1369;53.216;10.396;2023-06-05T14:49:06;26.60;63.70
2723;DHT22;1369;53.216;10.396;2023-06-05T14:51:32;26.70;67.60
2723;DHT22;1369;53.216;10.396;2023-06-05T14:53:58;26.70;68.10
2723;DHT22;1369;53.216;10.396;2023-06-05T14:56:25;26.50;66.10
2723;DHT22;1369;53.216;10.396;2023-06-05T14:58:51;26.30;64.50
2723;DHT22;1369;53.216;10.396;2023-06-05T15:01:18;26.20;66.40
2723;DHT22;1369;53.216;10.396;2023-06-05T15:03:45;26.00;67.60
2723;DHT22;1369;53.216;10.396;2023-06-05T15:06:12;25.80;68.70
2723;DHT22;1369;53.216;10.396;2023-06-05T15:08:38;25.70;70.50
2723;DHT22;1369;53.216;10.396;2023-06-05T15:11:05;25.50;68.00
2723;DHT22;1369;53.216;10.396;2023-06-05T15:13:31;25.40;70.00
2723;DHT22;1369;53.216;10.396;2023-06-05T15:15:57;25.50;68.90
2723;DHT22;1369;53.216;10.396;2023-06-05T15:18:25;25.70;70.70
2723;DHT22;1369;53.216;10.396;2023-06-05T15:20:52;25.90;67.00
2723;DHT22;1369;53.216;10.396;2023-06-05T15:23:18;26.10;66.30
2723;DHT22;1369;53.216;10.396;2023-06-05T15:25:44;26.30;65.90
2723;DHT22;1369;53.216;10.396;2023-06-05T15:28:11;26.40;66.50
2723;DHT22;1369;53.216;10.396;2023-06-05T15:30:37;26.60;66.50
2723;DHT22;1369;53.216;10.396;2023-06-05T15:33:03;26.20;61.40
2723;DHT22;1369;53.216;10.396;2023-06-05T15:35:29;26.10;61.60
2723;DHT22;1369;53.216;10.396;2023-06-05T15:37:56;26.10;64.50
2723;DHT22;1369;53.216;10.396;2023-06-05T15:40:22;26.20;66.60
2723;DHT22;1369;53.216;10.396;2023-06-05T15:43:04;26.40;62.90
2723;DHT22;1369;53.216;10.396;2023-06-05T15:45:31;26.60;65.80
2723;DHT22;1369;53.216;10.396;2023-06-05T15:47:58;26.80;64.70
2723;DHT22;1369;53.216;10.396;2023-06-05T15:50:25;27.00;63.70
2723;DHT22;1369;53.216;10.396;2023-06-05T15:52:51;27.20;65.30
2723;DHT22;1369;53.216;10.396;2023-06-05T15:55:18;27.30;62.90
2723;DHT22;1369;53.216;10.396;2023-06-05T15:57:44;27.40;64.60
2723;DHT22;1369;53.216;10.396;2023-06-05T16:00:13;27.30;64.10
2723;DHT22;1369;53.216;10.396;2023-06-05T16:02:39;27.30;64.30
2723;DHT22;1369;53.216;10.396;2023-06-05T16:05:06;27.10;60.60
2723;DHT22;1369;53.216;10.396;2023-06-05T16:07:33;27.20;63.50
2723;DHT22;1369;53.216;10.396;2023-06-05T16:09:59;27.20;63.00
2723;DHT22;1369;53.216;10.396;2023-06-05T16:12:25;27.30;64.50
2723;DHT22;1369;53.216;10.396;2023-06-05T16:14:52;27.30;64.80
2723;DHT22;1369;53.216;10.396;2023-06-05T16:17:19;27.30;63.60
2723;DHT22;1369;53.216;10.396;2023-06-05T16:19:46;26.90;62.70